HEMM

Mersa Matruh Airport

Mersa Matruh, Egypt
TAF HEMM 231100Z 2312/2418 31016KT CAVOK
Issued Valid From Valid To
Jul-23 @ 11:00 UTC
(3 hours ago)
Jul-23 @ 12:00 UTC
(2 hours ago)
Jul-24 @ 18:00 UTC
(-1 days ago)
Jul-23 @ 12:00 to Jul-24 @ 18:00
TAF HEMM 231100Z 2312/2418 31016KT CAVOK
Wind Visibility Clouds Conditions
310° at 16 knots 10,000+ meters
  • No significant clouds
TAF HEMM 231100Z 2312/2418 31016KT CAVOK
Issued Jul-23 @ 11:00 UTC
(3 hours ago)
Valid From Jul-23 @ 12:00 UTC
(2 hours ago)
Valid To Jul-24 @ 18:00 UTC
(-1 days ago)
Jul-23 @ 12:00 - Jul-24 @ 18:00
Wind Visibility
310° at 16 knots 10,000+ meters
Clouds
  • No significant clouds
Conditions